Schneifelwetter: Wetterstation Hallschlag, 537 m . NN
Wetterdaten: Dienstag, 23.08.2011
Datum Zeit Temp. A. Feuchte A. Luftdruck Regen Wind Richtung Richtung Sonnenschein Helligkeit T Regen Taupunkt Windchill
23.08.2011 00:10 14,6 C 84 % 1016 hPa 0,0 l/m 11,0 km/h (2 Bft) N-NO22.5 30 0 min 0 lux 0 min 11,9 C 12,2 C
23.08.2011 00:25 14,5 C 84 % 1015 hPa 0,0 l/m 13,6 km/h (3 Bft) NO45 50 0 min 0 lux 0 min 11,8 C 11,1 C
23.08.2011 00:40 14,5 C 84 % 1015 hPa 0,0 l/m 10,8 km/h (2 Bft) O-NO22.5 70 0 min 0 lux 0 min 11,8 C 12,2 C
23.08.2011 00:55 14,4 C 84 % 1016 hPa 0,0 l/m 5,5 km/h (1 Bft) O-NO 70 0 min 0 lux 0 min 11,7 C 14,4 C
23.08.2011 01:10 14,3 C 84 % 1016 hPa 0,0 l/m 0,0 km/h (0 Bft) O-NO 60 0 min 0 lux 0 min 11,6 C 14,3 C
23.08.2011 01:25 14,2 C 85 % 1016 hPa 0,0 l/m 0,0 km/h (0 Bft) O-NO 60 0 min 0 lux 0 min 11,7 C 14,2 C
23.08.2011 01:39 14,1 C 85 % 1015 hPa 0,0 l/m 0,0 km/h (0 Bft) O-NO 60 0 min 0 lux 0 min 11,6 C 14,1 C
23.08.2011 01:54 15,0 C 88 % 1015 hPa 0,0 l/m 25,5 km/h (4 Bft) W22.5 270 0 min 0 lux 0 min 13,0 C 8,5 C
23.08.2011 02:09 16,6 C 83 % 1015 hPa 0,0 l/m 20,9 km/h (4 Bft) W22.5 275 0 min 0 lux 0 min 13,7 C 11,6 C
23.08.2011 02:24 17,2 C 81 % 1016 hPa 0,0 l/m 16,4 km/h (3 Bft) NW45 310 0 min 0 lux 0 min 13,9 C 13,5 C
23.08.2011 02:39 17,3 C 80 % 1016 hPa 0,0 l/m 0,9 km/h (0 Bft) W 270 0 min 0 lux 0 min 13,8 C 17,3 C
23.08.2011 02:54 17,1 C 79 % 1015 hPa 0,0 l/m 4,6 km/h (1 Bft) W 270 0 min 0 lux 0 min 13,4 C 17,1 C
23.08.2011 03:09 16,7 C 80 % 1015 hPa 0,0 l/m 0,5 km/h (0 Bft) W 270 0 min 0 lux 0 min 13,2 C 16,7 C
23.08.2011 03:24 16,2 C 80 % 1015 hPa 0,0 l/m 0,0 km/h (0 Bft) W 270 0 min 0 lux 0 min 12,7 C 16,2 C
23.08.2011 03:39 15,9 C 81 % 1015 hPa 0,0 l/m 8,3 km/h (2 Bft) NW67.5 320 0 min 0 lux 0 min 12,6 C 14,9 C
23.08.2011 03:54 15,9 C 83 % 1015 hPa 0,0 l/m 15,5 km/h (3 Bft) NO22.5 40 0 min 0 lux 0 min 13,0 C 12,1 C
23.08.2011 04:09 15,8 C 83 % 1014 hPa 0,0 l/m 16,4 km/h (3 Bft) NO45 50 0 min 0 lux 0 min 12,9 C 11,7 C
23.08.2011 04:24 15,8 C 83 % 1014 hPa 0,0 l/m 15,9 km/h (3 Bft) O-NO45 60 0 min 0 lux 0 min 12,9 C 11,9 C
23.08.2011 04:39 15,7 C 83 % 1014 hPa 0,0 l/m 12,9 km/h (3 Bft) NO22.5 45 0 min 0 lux 0 min 12,8 C 12,7 C
23.08.2011 04:54 15,5 C 84 % 1014 hPa 0,0 l/m 11,2 km/h (2 Bft) NO 35 0 min 0 lux 0 min 12,8 C 13,2 C
23.08.2011 05:09 15,3 C 84 % 1014 hPa 0,0 l/m 8,0 km/h (2 Bft) N-NO 25 0 min 0 lux 0 min 12,6 C 14,4 C
23.08.2011 05:24 15,0 C 84 % 1014 hPa 0,0 l/m 8,3 km/h (2 Bft) N-NO 25 0 min 0 lux 0 min 12,3 C 13,9 C
23.08.2011 05:39 15,2 C 85 % 1014 hPa 0,0 l/m 12,3 km/h (3 Bft) N-NO22.5 15 0 min 0 lux 0 min 12,7 C 12,4 C
23.08.2011 05:54 15,3 C 85 % 1014 hPa 0,0 l/m 12,1 km/h (2 Bft) N 360 0 min 0 lux 0 min 12,8 C 12,6 C
23.08.2011 06:09 15,2 C 85 % 1014 hPa 0,0 l/m 11,1 km/h (2 Bft) N-NO22.5 15 0 min 0 lux 0 min 12,7 C 12,9 C
23.08.2011 06:24 15,1 C 86 % 1014 hPa 0,0 l/m 16,0 km/h (3 Bft) N 5 0 min 196 lux 0 min 12,8 C 11,0 C
23.08.2011 06:39 15,0 C 86 % 1014 hPa 0,0 l/m 7,7 km/h (2 Bft) N 10 0 min 851 lux 0 min 12,7 C 14,3 C
23.08.2011 06:54 15,0 C 87 % 1014 hPa 0,0 l/m 10,5 km/h (2 Bft) N-NO 15 0 min 1,99 klux 0 min 12,9 C 12,9 C
23.08.2011 07:09 15,1 C 87 % 1013 hPa 0,0 l/m 12,9 km/h (3 Bft) N-NO22.5 15 0 min 4,69 klux 0 min 13,0 C 12,0 C
23.08.2011 07:24 15,3 C 87 % 1013 hPa 0,0 l/m 11,2 km/h (2 Bft) N-NO 25 0 min 7,49 klux 0 min 13,1 C 12,9 C
23.08.2011 07:39 15,4 C 86 % 1013 hPa 0,0 l/m 7,5 km/h (2 Bft) N-NO 25 0 min 5,40 klux 0 min 13,1 C 14,8 C
23.08.2011 08:00 15,7 C 86 % 1013 hPa 0,0 l/m 9,0 km/h (2 Bft) N-NO22.5 25 0 min 8,77 klux 0 min 13,4 C 14,3 C
23.08.2011 08:16 16,3 C 86 % 1013 hPa 0,0 l/m 11,5 km/h (2 Bft) NO22.5 45 0 min 10,9 klux 0 min 14,0 C 14,0 C
23.08.2011 08:30 16,8 C 85 % 1013 hPa 0,0 l/m 12,7 km/h (3 Bft) N-NO22.5 30 0 min 25,1 klux 0 min 14,3 C 14,1 C
23.08.2011 08:45 17,2 C 83 % 1013 hPa 0,0 l/m 14,7 km/h (3 Bft) NO22.5 40 0 min 12,3 klux 0 min 14,3 C 13,9 C
23.08.2011 09:00 17,8 C 83 % 1013 hPa 0,0 l/m 10,7 km/h (2 Bft) NO22.5 45 0 min 23,4 klux 0 min 14,9 C 15,9 C
23.08.2011 09:15 18,2 C 81 % 1013 hPa 0,0 l/m 15,3 km/h (3 Bft) NO22.5 45 0 min 30,1 klux 0 min 14,9 C 15,0 C
23.08.2011 09:31 18,9 C 81 % 1013 hPa 0,0 l/m 11,0 km/h (2 Bft) NO 40 0 min 31,6 klux 0 min 15,6 C 17,1 C
23.08.2011 09:46 19,6 C 80 % 1013 hPa 0,0 l/m 9,7 km/h (2 Bft) N-NO22.5 15 0 min 44,5 klux 0 min 16,1 C 18,3 C
23.08.2011 10:00 20,7 C 78 % 1012 hPa 0,0 l/m 10,8 km/h (2 Bft) N-NO67.5 15 14 min 66,6 klux 0 min 16,7 C 19,2 C
23.08.2011 10:15 22,6 C 75 % 1012 hPa 0,0 l/m 4,5 km/h (1 Bft) O-NO 75 15 min 66,1 klux 0 min 17,9 C 22,6 C
23.08.2011 10:30 23,8 C 71 % 1012 hPa 0,0 l/m 23,0 km/h (4 Bft) S22.5 190 0 min 55,9 klux 0 min 18,2 C 20,8 C
23.08.2011 10:45 24,4 C 70 % 1012 hPa 0,0 l/m 19,5 km/h (3 Bft) S45 185 0 min 58,9 klux 0 min 18,6 C 22,0 C
23.08.2011 11:01 25,0 C 68 % 1012 hPa 0,0 l/m 17,8 km/h (3 Bft) S45 170 16 min 62,1 klux 0 min 18,7 C 22,9 C
23.08.2011 11:16 25,8 C 65 % 1012 hPa 0,0 l/m 20,3 km/h (4 Bft) S-SW45 200 15 min 66,1 klux 0 min 18,7 C 23,7 C
23.08.2011 11:30 25,6 C 64 % 1013 hPa 0,0 l/m 20,5 km/h (4 Bft) S22.5 185 14 min 72,1 klux 0 min 18,3 C 23,4 C
23.08.2011 11:45 25,6 C 64 % 1012 hPa 0,0 l/m 23,9 km/h (4 Bft) SW45 220 15 min 74,0 klux 0 min 18,3 C 23,1 C
23.08.2011 12:00 25,3 C 64 % 1013 hPa 0,0 l/m 20,1 km/h (4 Bft) SW45 220 0 min 37,0 klux 0 min 18,0 C 23,0 C
23.08.2011 12:15 25,6 C 65 % 1013 hPa 0,0 l/m 20,5 km/h (4 Bft) SW67.5 220 15 min 76,3 klux 0 min 18,5 C 23,4 C
23.08.2011 12:31 25,8 C 62 % 1013 hPa 0,0 l/m 28,5 km/h (4 Bft) W45 260 16 min 72,8 klux 0 min 18,0 C 23,0 C
23.08.2011 12:45 26,0 C 63 % 1012 hPa 0,0 l/m 26,2 km/h (4 Bft) W45 260 14 min 73,5 klux 0 min 18,4 C 23,4 C
23.08.2011 13:00 26,4 C 62 % 1012 hPa 0,0 l/m 18,6 km/h (3 Bft) SW67.5 230 15 min 74,3 klux 0 min 18,5 C 24,6 C
23.08.2011 13:15 26,6 C 63 % 1013 hPa 0,0 l/m 32,1 km/h (5 Bft) S-SW67.5 210 15 min 74,8 klux 0 min 19,0 C 23,9 C
23.08.2011 13:30 26,6 C 61 % 1012 hPa 0,0 l/m 26,1 km/h (4 Bft) W-SW67.5 240 15 min 75,0 klux 0 min 18,4 C 24,2 C
23.08.2011 13:45 26,4 C 62 % 1012 hPa 0,0 l/m 28,4 km/h (4 Bft) W45 260 15 min 75,0 klux 0 min 18,5 C 23,8 C
23.08.2011 14:01 27,1 C 61 % 1013 hPa 0,0 l/m 27,6 km/h (4 Bft) W45 260 16 min 90,8 klux 0 min 18,9 C 24,8 C
23.08.2011 14:15 26,8 C 62 % 1013 hPa 0,0 l/m 23,3 km/h (4 Bft) SW45 220 0 min 55,8 klux 0 min 18,9 C 24,7 C
23.08.2011 14:30 27,5 C 62 % 1013 hPa 0,0 l/m 30,1 km/h (5 Bft) S45 185 15 min 85,4 klux 0 min 19,6 C 25,3 C
23.08.2011 14:45 26,8 C 62 % 1013 hPa 0,0 l/m 16,6 km/h (3 Bft) W-SW45 245 0 min 21,3 klux 0 min 18,9 C 25,3 C
23.08.2011 15:00 27,2 C 63 % 1013 hPa 0,0 l/m 22,2 km/h (4 Bft) W22.5 260 15 min 83,3 klux 0 min 19,5 C 25,3 C
23.08.2011 15:15 27,2 C 64 % 1013 hPa 0,0 l/m 23,5 km/h (4 Bft) W-SW45 245 15 min 70,5 klux 0 min 19,8 C 25,2 C
23.08.2011 15:31 27,0 C 64 % 1013 hPa 0,0 l/m 26,0 km/h (4 Bft) W45 260 16 min 75,6 klux 0 min 19,6 C 24,8 C
23.08.2011 15:45 26,8 C 65 % 1013 hPa 0,0 l/m 27,2 km/h (4 Bft) W45 265 14 min 73,2 klux 0 min 19,7 C 24,5 C
23.08.2011 16:00 26,8 C 66 % 1013 hPa 0,0 l/m 24,8 km/h (4 Bft) W-SW45 240 15 min 68,2 klux 0 min 19,9 C 24,6 C
23.08.2011 16:15 26,5 C 64 % 1013 hPa 0,0 l/m 27,2 km/h (4 Bft) W22.5 260 15 min 67,2 klux 0 min 19,1 C 24,0 C
23.08.2011 16:30 26,8 C 62 % 1013 hPa 0,0 l/m 22,7 km/h (4 Bft) SW45 230 15 min 63,1 klux 0 min 18,9 C 24,8 C
23.08.2011 16:45 26,6 C 61 % 1013 hPa 0,0 l/m 23,1 km/h (4 Bft) W67.5 260 0 min 58,5 klux 0 min 18,4 C 24,5 C
23.08.2011 17:01 26,3 C 61 % 1013 hPa 0,0 l/m 23,4 km/h (4 Bft) W-SW22.5 250 0 min 55,3 klux 0 min 18,2 C 24,0 C
23.08.2011 17:15 26,2 C 60 % 1013 hPa 0,0 l/m 34,8 km/h (5 Bft) W22.5 265 0 min 53,9 klux 0 min 17,8 C 23,2 C
23.08.2011 17:30 25,9 C 60 % 1013 hPa 0,0 l/m 30,2 km/h (5 Bft) W-SW67.5 250 0 min 50,2 klux 0 min 17,5 C 23,0 C
23.08.2011 17:45 25,4 C 62 % 1013 hPa 0,0 l/m 21,3 km/h (4 Bft) W22.5 265 0 min 22,6 klux 0 min 17,6 C 23,0 C
23.08.2011 18:00 25,0 C 62 % 1013 hPa 0,0 l/m 30,7 km/h (5 Bft) W45 260 0 min 38,8 klux 0 min 17,2 C 21,7 C
23.08.2011 18:15 25,2 C 62 % 1013 hPa 0,0 l/m 32,1 km/h (5 Bft) W22.5 265 0 min 37,7 klux 0 min 17,4 C 21,9 C
23.08.2011 18:31 25,2 C 60 % 1013 hPa 0,0 l/m 33,8 km/h (5 Bft) W-SW45 250 0 min 32,8 klux 0 min 16,9 C 21,8 C
23.08.2011 18:45 24,8 C 60 % 1013 hPa 0,0 l/m 26,0 km/h (4 Bft) W-SW45 250 0 min 30,3 klux 0 min 16,5 C 21,8 C
23.08.2011 19:00 24,4 C 62 % 1013 hPa 0,0 l/m 25,7 km/h (4 Bft) W-SW45 250 0 min 26,4 klux 0 min 16,6 C 21,3 C
23.08.2011 19:15 24,0 C 63 % 1013 hPa 0,0 l/m 21,4 km/h (4 Bft) W-SW22.5 255 0 min 20,7 klux 0 min 16,5 C 21,2 C
23.08.2011 19:30 23,7 C 65 % 1013 hPa 0,0 l/m 15,8 km/h (3 Bft) W-SW22.5 255 0 min 16,4 klux 0 min 16,7 C 21,6 C
23.08.2011 19:45 23,6 C 66 % 1013 hPa 0,0 l/m 14,4 km/h (3 Bft) W-SW 245 0 min 13,2 klux 0 min 16,9 C 21,7 C
23.08.2011 20:01 23,2 C 66 % 1013 hPa 0,0 l/m 7,8 km/h (2 Bft) W-SW 245 0 min 8,83 klux 0 min 16,5 C 22,8 C
23.08.2011 20:15 22,5 C 68 % 1013 hPa 0,0 l/m 0,0 km/h (0 Bft) W-SW 245 0 min 4,71 klux 0 min 16,3 C 22,5 C
23.08.2011 20:30 21,8 C 69 % 1013 hPa 0,0 l/m 0,0 km/h (0 Bft) W-SW 245 0 min 2,26 klux 0 min 15,9 C 21,8 C
23.08.2011 20:45 21,0 C 70 % 1013 hPa 0,0 l/m 0,0 km/h (0 Bft) W-SW 245 0 min 1,00 klux 0 min 15,3 C 21,0 C
23.08.2011 21:00 20,4 C 72 % 1013 hPa 0,0 l/m 0,0 km/h (0 Bft) W-SW 245 0 min 217 lux 0 min 15,2 C 20,4 C
23.08.2011 21:15 19,6 C 74 % 1014 hPa 0,0 l/m 4,6 km/h (1 Bft) W-SW 245 0 min 18 lux 0 min 14,8 C 19,6 C
23.08.2011 21:31 19,2 C 75 % 1014 hPa 0,0 l/m 6,2 km/h (2 Bft) W-SW 245 0 min 3 lux 0 min 14,7 C 19,2 C
23.08.2011 21:45 18,8 C 76 % 1014 hPa 0,0 l/m 0,3 km/h (0 Bft) W-SW 245 0 min 0 lux 0 min 14,5 C 18,8 C
23.08.2011 22:00 18,3 C 77 % 1014 hPa 0,0 l/m 0,0 km/h (0 Bft) W-SW 245 0 min 0 lux 0 min 14,2 C 18,3 C
23.08.2011 22:15 17,7 C 78 % 1014 hPa 0,0 l/m 0,0 km/h (0 Bft) W-SW 245 0 min 0 lux 0 min 13,8 C 17,7 C
23.08.2011 22:30 17,2 C 79 % 1014 hPa 0,0 l/m 0,0 km/h (0 Bft) W-SW 245 0 min 0 lux 0 min 13,5 C 17,2 C
23.08.2011 22:45 16,8 C 81 % 1014 hPa 0,0 l/m 0,0 km/h (0 Bft) W-SW 245 0 min 0 lux 0 min 13,5 C 16,8 C
23.08.2011 23:01 16,4 C 82 % 1014 hPa 0,0 l/m 0,0 km/h (0 Bft) W-SW 245 0 min 0 lux 0 min 13,3 C 16,4 C
23.08.2011 23:15 16,1 C 83 % 1014 hPa 0,0 l/m 0,0 km/h (0 Bft) W-SW 245 0 min 0 lux 0 min 13,2 C 16,1 C
23.08.2011 23:30 15,8 C 83 % 1014 hPa 0,0 l/m 0,0 km/h (0 Bft) W-SW 245 0 min 0 lux 0 min 12,9 C 15,8 C
23.08.2011 23:45 15,6 C 84 % 1014 hPa 0,0 l/m 0,0 km/h (0 Bft) W-SW 245 0 min 0 lux 0 min 12,9 C 15,6 C
23.08.2011 23:54 15,8 C 85 % 1015 hPa 0,0 l/m 6,5 km/h (2 Bft) W-SW 245 0 min 0 lux 0 min 13,3 C 15,8 C
_ Min-Zeit 01:39 17:15 10:00 - 01:10 - - - - - 01:39 01:54
Minimum _ 14,1 C 60 % 1012 hPa - 0,0 km/h (0 Bft) - - - - - 11,6 C 8,5 C
_ Max-Zeit 14:30 01:54 00:10 00:10 17:15 - - 11:01 14:01 00:10 16:00 15:00
Maximum _ 27,5 C 88 % 1016 hPa 0,0 l/m 34,8 km/h
W (5 Bft)
- - 16 min 90,8 klux 0 min 19,9 C 25,3 C
Durchschnitt _ 20,4 C 74 % 1014 hPa #0,0 l/m 14,3 km/h (3 Bft) W-SW - #5:30 h 26,3 klux #0 min. 15,5 C 18,6 C